Terminal Aerodrome Forecast
Issued by NWS Cleveland, OH

Home | Current Version | Previous Version | Text Only | Print | Product List | Glossary Off
Versions: 1 2 3 4 5 6 7 8 9 10 11 12 13 14

000
FTUS41 KCLE 041129
TAFTOL
TAF
KTOL 041129Z 0412/0512 34002KT 5SM BR SKC
      TEMPO 0412/0414 6SM BR
     FM041400 32005KT P6SM FEW045
     FM050100 VRB02KT P6SM SKC
      TEMPO 0509/0512 4SM BR=

USA.gov is the U.S. government's official web portal to all federal, state and local government web resources and services.